createdAt,value
2023-04-16T00:00:14.180Z,88.68
2023-04-16T00:01:14.119Z,88.98
2023-04-16T00:02:14.263Z,88.17
2023-04-16T00:03:14.281Z,88.78
2023-04-16T00:04:14.199Z,88.68
2023-04-16T00:05:14.168Z,88.98
2023-04-16T00:06:14.111Z,89.43
2023-04-16T00:07:14.096Z,88.31
2023-04-16T00:08:14.097Z,89.09
2023-04-16T00:09:14.170Z,89.19
2023-04-16T00:10:14.169Z,89.13
2023-04-16T00:11:14.292Z,89.23
2023-04-16T00:12:14.095Z,88.72
2023-04-16T00:13:14.068Z,88.62
2023-04-16T00:14:14.054Z,88.37
2023-04-16T00:15:14.047Z,88.82
2023-04-16T00:16:14.085Z,88.82
2023-04-16T00:17:14.076Z,88.98
2023-04-16T00:18:13.991Z,88.78
2023-04-16T00:19:14.055Z,88.62
2023-04-16T00:20:13.992Z,89.54
2023-04-16T00:21:14.027Z,88.92
2023-04-16T00:22:13.968Z,88.62
2023-04-16T00:23:14.036Z,89.03
2023-04-16T00:24:14.073Z,89.43
2023-04-16T00:25:13.977Z,88.68
2023-04-16T00:26:13.952Z,88.82
2023-04-16T00:27:14.051Z,89.23
2023-04-16T00:28:13.953Z,88.68
2023-04-16T00:29:14.005Z,88.88
2023-04-16T00:30:13.956Z,88.82
2023-04-16T00:31:13.983Z,89.13
2023-04-16T00:32:13.924Z,89.13
2023-04-16T00:33:13.907Z,88.82
2023-04-16T00:34:13.893Z,88.92
2023-04-16T00:35:13.952Z,88.82
2023-04-16T00:36:13.888Z,88.17
2023-04-16T00:37:13.911Z,88.68
2023-04-16T00:38:13.862Z,88.47
2023-04-16T00:39:13.893Z,88.62
2023-04-16T00:40:13.843Z,88.68
2023-04-16T00:41:13.901Z,88.78
2023-04-16T00:42:14.018Z,88.57
2023-04-16T00:43:13.911Z,88.68
2023-04-16T00:44:13.851Z,88.82
2023-04-16T00:45:13.792Z,88.68
2023-04-16T00:46:13.844Z,88.98
2023-04-16T00:47:13.924Z,88.37
2023-04-16T00:48:13.786Z,88.98
2023-04-16T00:49:13.806Z,89.09
2023-04-16T00:50:13.791Z,88.68
2023-04-16T00:51:13.772Z,88.88
2023-04-16T00:52:13.755Z,88.98
2023-04-16T00:53:13.784Z,88.68
2023-04-16T00:54:13.751Z,88.98
2023-04-16T00:55:13.784Z,88.57
2023-04-16T00:56:13.729Z,88.78
2023-04-16T00:57:13.703Z,89.09
2023-04-16T00:58:13.799Z,88.27
2023-04-16T00:59:13.784Z,88.88
2023-04-16T01:00:13.710Z,88.37
2023-04-16T01:01:13.896Z,87.85
2023-04-16T01:02:13.874Z,88.27
2023-04-16T01:03:13.813Z,88.88
2023-04-16T01:04:13.758Z,88.57
2023-04-16T01:05:14.025Z,88.57
2023-04-16T01:06:13.677Z,89.09
2023-04-16T01:07:13.661Z,88.27
2023-04-16T01:08:13.672Z,88.88
2023-04-16T01:09:13.690Z,88.78
2023-04-16T01:10:13.668Z,88.47
2023-04-16T01:11:53.866Z,88.78
2023-04-16T01:12:14.654Z,88.78
2023-04-16T01:13:13.625Z,88.68
2023-04-16T01:14:13.753Z,89.09
2023-04-16T01:15:13.623Z,88.21
2023-04-16T01:16:13.637Z,89.54
2023-04-16T01:17:13.754Z,88.72
2023-04-16T01:18:13.613Z,89.64
2023-04-16T01:19:13.586Z,90.05
2023-04-16T01:20:13.619Z,89.03
2023-04-16T01:21:13.567Z,88.21
2023-04-16T01:22:13.587Z,89.43
2023-04-16T01:23:13.590Z,88.72
2023-04-16T01:24:13.571Z,89.54
2023-04-16T01:25:13.593Z,89.64
2023-04-16T01:26:13.529Z,89.54
2023-04-16T01:27:13.538Z,89.03
2023-04-16T01:28:13.523Z,90.16
2023-04-16T01:29:13.551Z,90.05
2023-04-16T01:30:13.508Z,89.48
2023-04-16T01:31:13.533Z,89.33
2023-04-16T01:32:13.500Z,88.82
2023-04-16T01:33:13.505Z,89.54
2023-04-16T01:34:13.464Z,89.75
2023-04-16T01:35:13.514Z,88.92
2023-04-16T01:36:13.436Z,89.58
2023-04-16T01:37:13.458Z,89.99
2023-04-16T01:38:13.444Z,89.48
2023-04-16T01:39:13.440Z,89.48
2023-04-16T01:40:13.435Z,89.07
2023-04-16T01:41:13.548Z,88.92
2023-04-16T01:42:13.442Z,88.62
2023-04-16T01:43:13.431Z,88.82
2023-04-16T01:44:13.410Z,88.72
2023-04-16T01:45:13.405Z,89.58
2023-04-16T01:46:13.423Z,89.78
2023-04-16T01:47:13.421Z,90.61
2023-04-16T01:48:13.389Z,90.24
2023-04-16T01:49:13.371Z,90.65
2023-04-16T01:50:13.327Z,91.06
2023-04-16T01:51:13.376Z,91.16
2023-04-16T01:52:13.346Z,91.00
2023-04-16T01:53:13.370Z,90.44
2023-04-16T01:54:13.339Z,90.14
2023-04-16T01:55:13.288Z,90.24
2023-04-16T01:56:13.308Z,90.44
2023-04-16T01:57:13.317Z,90.85
2023-04-16T01:58:13.287Z,90.24
2023-04-16T01:59:13.353Z,90.30
2023-04-16T02:00:13.285Z,90.20
2023-04-16T02:01:13.324Z,90.30
2023-04-16T02:02:13.342Z,90.03
2023-04-16T02:03:13.444Z,89.89
2023-04-16T02:05:02.762Z,89.69
2023-04-16T02:05:14.714Z,89.27
2023-04-16T02:06:13.258Z,88.76
2023-04-16T02:07:53.903Z,88.96
2023-04-16T02:08:14.216Z,88.96
2023-04-16T02:09:13.235Z,89.17
2023-04-16T02:10:13.210Z,88.96
2023-04-16T02:11:13.249Z,88.96
2023-04-16T02:12:13.187Z,88.76
2023-04-16T02:13:13.193Z,89.13
2023-04-16T02:14:13.173Z,89.27
2023-04-16T02:15:13.188Z,88.92
2023-04-16T02:16:13.268Z,89.13
2023-04-16T02:17:13.226Z,89.03
2023-04-16T02:18:13.196Z,88.41
2023-04-16T02:19:13.151Z,89.17
2023-04-16T02:20:13.152Z,88.31
2023-04-16T02:21:13.125Z,88.82
2023-04-16T02:22:13.126Z,88.31
2023-04-16T02:23:13.148Z,88.72
2023-04-16T02:24:13.112Z,88.82
2023-04-16T02:25:13.127Z,89.48
2023-04-16T02:26:13.078Z,89.03
2023-04-16T02:27:13.098Z,88.72
2023-04-16T02:28:13.090Z,89.75
2023-04-16T02:29:13.104Z,88.86
2023-04-16T02:30:13.064Z,89.89
2023-04-16T02:31:13.063Z,89.89
2023-04-16T02:32:13.244Z,89.89
2023-04-16T02:33:13.040Z,89.69
2023-04-16T02:34:13.047Z,89.58
2023-04-16T02:35:13.082Z,89.99
2023-04-16T02:36:13.032Z,90.36
2023-04-16T02:37:13.022Z,90.40
2023-04-16T02:38:13.011Z,90.09
2023-04-16T02:39:13.024Z,90.09
2023-04-16T02:40:13.015Z,89.99
2023-04-16T02:41:13.045Z,89.27
2023-04-16T02:42:12.959Z,89.89
2023-04-16T02:43:12.980Z,89.48
2023-04-16T02:44:12.963Z,89.17
2023-04-16T02:45:12.964Z,88.62
2023-04-16T02:46:12.995Z,88.62
2023-04-16T02:47:12.991Z,88.21
2023-04-16T02:48:12.958Z,88.82
2023-04-16T02:49:12.927Z,88.82
2023-04-16T02:50:12.976Z,88.21
2023-04-16T02:51:12.899Z,89.03
2023-04-16T02:52:15.079Z,88.51
2023-04-16T02:53:12.947Z,88.92
2023-04-16T02:54:12.879Z,88.82
2023-04-16T02:55:12.887Z,88.92
2023-04-16T02:56:12.886Z,88.62
2023-04-16T02:57:12.878Z,89.78
2023-04-16T02:58:12.883Z,88.86
2023-04-16T02:59:12.883Z,88.76
2023-04-16T03:00:12.854Z,89.03
2023-04-16T03:01:12.868Z,88.62
2023-04-16T03:02:12.863Z,88.72
2023-04-16T03:03:12.924Z,89.03
2023-04-16T03:04:12.914Z,89.13
2023-04-16T03:05:12.975Z,88.00
2023-04-16T03:06:12.815Z,88.31
2023-04-16T03:07:12.813Z,87.90
2023-04-16T03:08:12.785Z,88.82
2023-04-16T03:09:12.809Z,88.96
2023-04-16T03:10:12.902Z,88.62
2023-04-16T03:11:13.083Z,88.92
2023-04-16T03:12:12.734Z,88.92
2023-04-16T03:13:12.745Z,88.72
2023-04-16T03:14:12.742Z,89.03
2023-04-16T03:15:12.739Z,89.13
2023-04-16T03:16:12.766Z,88.72
2023-04-16T03:17:12.774Z,88.00
2023-04-16T03:18:12.724Z,88.92
2023-04-16T03:19:12.707Z,88.31
2023-04-16T03:20:12.707Z,88.72
2023-04-16T03:21:12.719Z,88.82
2023-04-16T03:22:12.701Z,88.31
2023-04-16T03:23:12.766Z,88.82
2023-04-16T03:24:12.665Z,88.62
2023-04-16T03:25:12.707Z,88.51
2023-04-16T03:26:12.663Z,88.31
2023-04-16T03:27:12.643Z,88.21
2023-04-16T03:28:12.651Z,88.31
2023-04-16T03:29:12.690Z,88.92
2023-04-16T03:30:12.632Z,88.92
2023-04-16T03:31:12.702Z,88.41
2023-04-16T03:32:12.627Z,88.51
2023-04-16T03:33:12.612Z,88.82
2023-04-16T03:34:12.626Z,88.62
2023-04-16T03:35:12.655Z,88.10
2023-04-16T03:36:12.602Z,88.31
2023-04-16T03:37:12.578Z,88.31
2023-04-16T03:38:12.591Z,88.31
2023-04-16T03:39:12.586Z,88.21
2023-04-16T03:40:12.569Z,88.51
2023-04-16T03:41:12.610Z,88.31
2023-04-16T03:42:12.573Z,88.00
2023-04-16T03:43:12.545Z,88.00
2023-04-16T03:44:12.534Z,88.10
2023-04-16T03:45:12.511Z,88.62
2023-04-16T03:46:12.548Z,88.00
2023-04-16T03:47:12.549Z,87.70
2023-04-16T03:48:12.520Z,87.90
2023-04-16T03:49:12.505Z,88.41
2023-04-16T03:50:12.461Z,87.90
2023-04-16T03:51:12.485Z,87.90
2023-04-16T03:52:12.446Z,88.21
2023-04-16T03:53:12.502Z,88.51
2023-04-16T03:54:12.450Z,88.10
2023-04-16T03:55:12.465Z,87.79
2023-04-16T03:56:12.438Z,88.00
2023-04-16T03:57:12.446Z,88.21
2023-04-16T03:58:12.447Z,88.10
2023-04-16T03:59:12.493Z,88.21
2023-04-16T04:00:12.390Z,88.41
2023-04-16T04:01:12.440Z,88.21
2023-04-16T04:02:12.534Z,88.72
2023-04-16T04:03:12.611Z,88.72
2023-04-16T04:04:12.483Z,88.62
2023-04-16T04:05:12.408Z,88.82
2023-04-16T04:06:12.388Z,88.72
2023-04-16T04:07:12.349Z,88.41
2023-04-16T04:08:12.350Z,89.03
2023-04-16T04:09:12.355Z,88.82
2023-04-16T04:10:12.345Z,89.54
2023-04-16T04:11:12.554Z,88.72
2023-04-16T04:12:12.319Z,88.72
2023-04-16T04:13:12.329Z,88.72
2023-04-16T04:14:12.314Z,89.03
2023-04-16T04:15:12.302Z,89.13
2023-04-16T04:16:12.317Z,89.03
2023-04-16T04:17:12.321Z,89.43
2023-04-16T04:18:12.286Z,89.64
2023-04-16T04:19:12.289Z,88.82
2023-04-16T04:20:12.273Z,88.72
2023-04-16T04:21:12.346Z,89.23
2023-04-16T04:22:33.303Z,89.54
2023-04-16T04:23:12.252Z,89.84
2023-04-16T04:24:12.267Z,89.43
2023-04-16T04:25:12.225Z,89.03
2023-04-16T04:26:12.263Z,89.95
2023-04-16T04:27:12.231Z,88.92
2023-04-16T04:28:12.268Z,89.43
2023-04-16T04:29:12.328Z,89.54
2023-04-16T04:30:12.195Z,89.95
2023-04-16T04:31:12.232Z,90.16
2023-04-16T04:32:12.209Z,89.13
2023-04-16T04:33:12.192Z,90.16
2023-04-16T04:34:12.187Z,89.84
2023-04-16T04:35:12.154Z,89.43
2023-04-16T04:36:12.173Z,90.05
2023-04-16T04:37:33.154Z,89.54
2023-04-16T04:38:13.640Z,89.54
2023-04-16T04:39:12.103Z,90.40
2023-04-16T04:40:12.202Z,90.71
2023-04-16T04:41:12.130Z,90.40
2023-04-16T04:42:12.111Z,90.71
2023-04-16T04:43:12.109Z,90.71
2023-04-16T04:44:12.088Z,90.50
2023-04-16T04:45:12.121Z,90.81
2023-04-16T04:46:12.178Z,90.71
2023-04-16T04:47:12.060Z,90.91
2023-04-16T04:48:12.081Z,90.81
2023-04-16T04:49:12.174Z,91.63
2023-04-16T04:50:12.072Z,91.33
2023-04-16T04:51:12.042Z,91.33
2023-04-16T04:52:12.096Z,92.46
2023-04-16T04:53:12.066Z,91.22
2023-04-16T04:54:12.021Z,90.91
2023-04-16T04:55:12.022Z,91.53
2023-04-16T04:56:13.096Z,90.91
2023-04-16T04:57:12.008Z,91.02
2023-04-16T04:58:12.050Z,91.33
2023-04-16T04:59:12.045Z,91.84
2023-04-16T05:00:11.990Z,91.42
2023-04-16T05:01:11.994Z,92.35
2023-04-16T05:02:11.981Z,91.53
2023-04-16T05:03:12.063Z,91.74
2023-04-16T05:04:12.093Z,91.12
2023-04-16T05:05:11.980Z,91.53
2023-04-16T05:06:11.938Z,91.42
2023-04-16T05:07:11.974Z,92.14
2023-04-16T05:08:11.927Z,91.63
2023-04-16T05:09:12.073Z,91.33
2023-04-16T05:10:11.945Z,91.22
2023-04-16T05:11:11.902Z,91.42
2023-04-16T05:12:11.916Z,92.35
2023-04-16T05:13:11.904Z,90.91
2023-04-16T05:14:11.879Z,91.22
2023-04-16T05:15:11.881Z,91.22
2023-04-16T05:16:12.209Z,92.25
2023-04-16T05:17:11.883Z,92.14
2023-04-16T05:18:11.884Z,92.35
2023-04-16T05:19:12.025Z,91.33
2023-04-16T05:20:11.839Z,91.33
2023-04-16T05:21:11.841Z,91.12
2023-04-16T05:22:11.895Z,91.33
2023-04-16T05:23:11.849Z,90.81
2023-04-16T05:24:13.062Z,91.63
2023-04-16T05:25:11.851Z,90.81
2023-04-16T05:26:11.808Z,91.02
2023-04-16T05:27:11.829Z,91.22
2023-04-16T05:28:22.495Z,90.81
2023-04-16T05:29:11.893Z,91.22
2023-04-16T05:30:11.786Z,90.61
2023-04-16T05:31:11.781Z,90.50
2023-04-16T05:32:11.761Z,90.81
2023-04-16T05:33:11.762Z,90.20
2023-04-16T05:34:11.798Z,90.30
2023-04-16T05:35:11.753Z,90.30
2023-04-16T05:36:11.720Z,90.71
2023-04-16T05:37:11.721Z,90.16
2023-04-16T05:38:11.731Z,90.91
2023-04-16T05:39:11.861Z,90.91
2023-04-16T05:40:11.733Z,91.49
2023-04-16T05:41:11.832Z,90.87
2023-04-16T05:42:11.687Z,90.87
2023-04-16T05:43:11.674Z,91.08
2023-04-16T05:44:11.674Z,90.20
2023-04-16T05:45:11.669Z,90.97
2023-04-16T05:46:11.750Z,90.97
2023-04-16T05:47:11.636Z,90.40
2023-04-16T05:48:11.654Z,90.87
2023-04-16T05:49:12.010Z,90.97
2023-04-16T05:50:11.650Z,90.87
2023-04-16T05:51:11.650Z,91.08
2023-04-16T05:52:11.646Z,90.87
2023-04-16T05:53:27.859Z,90.77
2023-04-16T05:54:11.592Z,90.77
2023-04-16T05:55:11.598Z,90.16
2023-04-16T05:56:11.640Z,90.87
2023-04-16T05:57:11.614Z,90.05
2023-04-16T05:58:11.662Z,89.70
2023-04-16T05:59:11.806Z,89.95
2023-04-16T06:00:11.545Z,90.26
2023-04-16T06:01:11.562Z,90.42
2023-04-16T06:02:11.597Z,90.22
2023-04-16T06:03:11.663Z,90.05
2023-04-16T06:04:11.643Z,90.56
2023-04-16T06:05:11.529Z,90.67
2023-04-16T06:06:11.509Z,89.64
2023-04-16T06:07:11.500Z,90.01
2023-04-16T06:08:11.525Z,90.01
2023-04-16T06:09:11.748Z,90.01
2023-04-16T06:10:11.534Z,89.81
2023-04-16T06:11:11.491Z,89.90
2023-04-16T06:12:11.483Z,89.29
2023-04-16T06:13:11.741Z,89.90
2023-04-16T06:14:11.780Z,89.29
2023-04-16T06:15:11.441Z,89.60
2023-04-16T06:16:11.898Z,90.32
2023-04-16T06:17:11.447Z,88.68
2023-04-16T06:18:11.452Z,88.37
2023-04-16T06:19:11.593Z,88.68
2023-04-16T06:20:11.409Z,89.50
2023-04-16T06:21:11.405Z,89.09
2023-04-16T06:22:12.427Z,89.15
2023-04-16T06:23:11.439Z,89.76
2023-04-16T06:24:12.045Z,88.64
2023-04-16T06:25:11.406Z,89.97
2023-04-16T06:26:11.453Z,90.01
2023-04-16T06:27:11.368Z,90.01
2023-04-16T06:28:11.416Z,89.60
2023-04-16T06:29:11.582Z,89.81
2023-04-16T06:30:11.393Z,89.70
2023-04-16T06:31:11.495Z,89.70
2023-04-16T06:32:11.926Z,89.70
2023-04-16T06:33:11.424Z,89.09
2023-04-16T06:34:11.374Z,89.81
2023-04-16T06:35:11.322Z,89.39
2023-04-16T06:36:11.354Z,89.97
2023-04-16T06:37:11.436Z,89.87
2023-04-16T06:38:11.390Z,89.66
2023-04-16T06:39:11.547Z,88.64
2023-04-16T06:40:11.369Z,89.04
2023-04-16T06:41:11.274Z,88.64
2023-04-16T06:42:11.275Z,88.80
2023-04-16T06:43:11.244Z,89.11
2023-04-16T06:44:12.529Z,89.83
2023-04-16T06:45:11.233Z,88.70
2023-04-16T06:46:11.293Z,88.49
2023-04-16T06:47:11.415Z,88.59
2023-04-16T06:48:11.267Z,88.39
2023-04-16T06:49:11.558Z,88.59
2023-04-16T06:50:11.244Z,87.98
2023-04-16T06:51:11.217Z,87.98
2023-04-16T06:52:11.310Z,88.45
2023-04-16T06:53:11.182Z,88.96
2023-04-16T06:54:11.290Z,87.94
2023-04-16T06:55:11.236Z,87.08
2023-04-16T06:56:11.167Z,87.70
2023-04-16T06:57:11.448Z,86.61
2023-04-16T06:58:11.475Z,87.37
2023-04-16T06:59:11.791Z,86.96
2023-04-16T07:00:11.663Z,86.81
2023-04-16T07:01:11.647Z,88.24
2023-04-16T07:02:11.636Z,87.43
2023-04-16T07:03:11.465Z,87.32
2023-04-16T07:04:11.839Z,86.26
2023-04-16T07:05:11.380Z,86.36
2023-04-16T07:06:11.374Z,85.79
2023-04-16T07:07:11.860Z,86.26
2023-04-16T07:08:11.601Z,85.96
2023-04-16T07:09:11.695Z,86.40
2023-04-16T07:10:11.473Z,86.40
2023-04-16T07:11:11.123Z,87.22
2023-04-16T07:12:11.191Z,86.20
2023-04-16T07:13:11.347Z,86.77
2023-04-16T07:14:11.004Z,85.58
2023-04-16T07:15:11.464Z,86.30
2023-04-16T07:16:12.239Z,85.55
2023-04-16T07:17:11.086Z,85.61
2023-04-16T07:18:11.209Z,84.99
2023-04-16T07:19:11.516Z,85.61
2023-04-16T07:20:11.676Z,84.58
2023-04-16T07:21:11.282Z,84.22
2023-04-16T07:22:11.886Z,84.72
2023-04-16T07:23:11.654Z,84.58
2023-04-16T07:24:11.564Z,84.63
2023-04-16T07:25:11.798Z,85.91
2023-04-16T07:26:11.655Z,84.99
2023-04-16T07:27:10.981Z,84.63
2023-04-16T07:28:12.163Z,85.24
2023-04-16T07:29:11.294Z,85.34
2023-04-16T07:30:11.704Z,85.30
2023-04-16T07:31:11.653Z,84.63
2023-04-16T07:32:11.992Z,85.20
2023-04-16T07:33:11.495Z,84.58
2023-04-16T07:34:12.222Z,84.48
2023-04-16T07:35:11.464Z,84.75
2023-04-16T07:36:11.278Z,84.85
2023-04-16T07:37:11.192Z,83.66
2023-04-16T07:38:11.571Z,84.48
2023-04-16T07:39:11.542Z,84.58
2023-04-16T07:40:31.677Z,83.36
2023-04-16T07:41:11.325Z,83.76
2023-04-16T07:42:11.697Z,83.56
2023-04-16T07:43:11.297Z,84.58
2023-04-16T07:44:11.326Z,84.79
2023-04-16T07:45:11.544Z,83.76
2023-04-16T07:46:11.917Z,83.46
2023-04-16T07:47:11.493Z,83.56
2023-04-16T07:48:11.657Z,83.25
2023-04-16T07:49:11.782Z,83.97
2023-04-16T07:50:11.569Z,83.36
2023-04-16T07:51:11.293Z,83.05
2023-04-16T07:52:11.766Z,83.01
2023-04-16T07:53:11.352Z,83.52
2023-04-16T07:54:11.212Z,83.22
2023-04-16T07:55:11.223Z,82.60
2023-04-16T07:56:11.095Z,82.70
2023-04-16T07:57:11.460Z,82.60
2023-04-16T07:58:11.983Z,82.84
2023-04-16T07:59:22.167Z,83.05
2023-04-16T08:00:12.294Z,83.56
2023-04-16T08:01:11.471Z,82.91
2023-04-16T08:02:11.379Z,82.84
2023-04-16T08:03:11.216Z,83.42
2023-04-16T08:04:14.177Z,81.88
2023-04-16T08:05:11.227Z,81.68
2023-04-16T08:06:11.273Z,82.20
2023-04-16T08:07:10.828Z,82.60
2023-04-16T08:08:11.051Z,81.48
2023-04-16T08:09:11.070Z,82.70
2023-04-16T08:10:11.412Z,82.97
2023-04-16T08:11:11.352Z,81.13
2023-04-16T08:12:11.284Z,83.24
2023-04-16T08:13:10.859Z,80.73
2023-04-16T08:14:11.150Z,81.34
2023-04-16T08:15:11.400Z,81.13
2023-04-16T08:16:11.909Z,82.01
2023-04-16T08:17:11.257Z,81.10
2023-04-16T08:18:11.059Z,79.52
2023-04-16T08:19:11.348Z,80.24
2023-04-16T08:20:14.404Z,79.12
2023-04-16T08:21:11.438Z,79.49
2023-04-16T08:22:12.382Z,79.43
2023-04-16T08:23:11.500Z,79.52
2023-04-16T08:24:11.465Z,78.27
2023-04-16T08:25:11.162Z,78.47
2023-04-16T08:26:11.376Z,78.37
2023-04-16T08:27:18.441Z,79.39
2023-04-16T08:28:12.884Z,78.41
2023-04-16T08:29:11.521Z,78.71
2023-04-16T08:30:11.010Z,78.27
2023-04-16T08:31:11.345Z,79.22
2023-04-16T08:32:11.259Z,78.30
2023-04-16T08:33:11.451Z,78.91
2023-04-16T08:34:11.776Z,78.30
2023-04-16T08:35:11.232Z,79.02
2023-04-16T08:36:11.085Z,78.57
2023-04-16T08:37:11.165Z,78.16
2023-04-16T08:38:11.244Z,78.16
2023-04-16T08:39:11.390Z,78.06
2023-04-16T08:40:11.219Z,78.06
2023-04-16T08:41:10.873Z,77.89
2023-04-16T08:42:18.180Z,79.02
2023-04-16T08:43:11.165Z,79.22
2023-04-16T08:44:11.222Z,78.71
2023-04-16T08:45:11.052Z,78.47
2023-04-16T08:46:11.502Z,79.02
2023-04-16T08:47:10.986Z,79.05
2023-04-16T08:48:11.056Z,78.77
2023-04-16T08:49:11.440Z,78.37
2023-04-16T08:50:11.312Z,78.50
2023-04-16T08:51:11.236Z,79.43
2023-04-16T08:52:11.723Z,78.20
2023-04-16T08:53:11.249Z,79.22
2023-04-16T08:54:11.216Z,78.16
2023-04-16T08:55:12.155Z,78.20
2023-04-16T08:56:10.892Z,78.16
2023-04-16T08:57:10.887Z,78.30
2023-04-16T08:58:11.373Z,78.98
2023-04-16T08:59:11.203Z,79.28
2023-04-16T09:00:10.853Z,77.92
2023-04-16T09:01:11.139Z,77.92
2023-04-16T09:02:11.198Z,77.92
2023-04-16T09:03:12.101Z,76.70
2023-04-16T09:04:11.833Z,77.92
2023-04-16T09:05:10.762Z,78.33
2023-04-16T09:06:10.673Z,78.12
2023-04-16T09:07:10.656Z,77.62
2023-04-16T09:08:10.753Z,78.37
2023-04-16T09:09:10.909Z,79.25
2023-04-16T09:10:11.010Z,78.09
2023-04-16T09:11:10.647Z,76.90
2023-04-16T09:12:11.089Z,77.04
2023-04-16T09:13:10.647Z,78.27
2023-04-16T09:14:10.897Z,78.16
2023-04-16T09:15:10.867Z,78.27
2023-04-16T09:16:11.235Z,78.41
2023-04-16T09:17:10.669Z,78.61
2023-04-16T09:18:10.906Z,79.32
2023-04-16T09:19:10.952Z,79.08
2023-04-16T09:20:10.909Z,77.86
2023-04-16T09:21:10.925Z,78.37
2023-04-16T09:22:11.318Z,77.98
2023-04-16T09:23:10.941Z,76.97
2023-04-16T09:24:10.909Z,76.66
2023-04-16T09:25:10.946Z,76.62
2023-04-16T09:26:10.753Z,77.03
2023-04-16T09:27:10.969Z,77.75
2023-04-16T09:28:11.512Z,77.17
2023-04-16T09:29:10.877Z,77.68
2023-04-16T09:30:10.801Z,77.24
2023-04-16T09:31:10.949Z,75.92
2023-04-16T09:32:10.920Z,76.76
2023-04-16T09:33:10.927Z,75.71
2023-04-16T09:34:11.284Z,75.51
2023-04-16T09:35:10.902Z,76.08
2023-04-16T09:36:10.924Z,76.18
2023-04-16T09:37:10.764Z,75.64
2023-04-16T09:38:11.882Z,75.23
2023-04-16T09:39:10.857Z,77.45
2023-04-16T09:40:12.185Z,77.75
2023-04-16T09:41:10.812Z,77.55
2023-04-16T09:42:10.728Z,77.51
2023-04-16T09:43:10.864Z,78.39
2023-04-16T09:44:10.782Z,77.98
2023-04-16T09:45:10.754Z,77.64
2023-04-16T09:46:13.295Z,76.12
2023-04-16T09:47:10.869Z,76.62
2023-04-16T09:48:10.632Z,77.34
2023-04-16T09:49:11.042Z,76.66
2023-04-16T09:50:12.447Z,77.72
2023-04-16T09:51:10.778Z,77.72
2023-04-16T09:52:11.261Z,77.48
2023-04-16T09:53:10.576Z,76.76
2023-04-16T09:54:10.745Z,77.17
2023-04-16T09:55:10.781Z,77.21
2023-04-16T09:56:10.746Z,77.45
2023-04-16T09:57:10.653Z,78.16
2023-04-16T09:58:11.092Z,78.47
2023-04-16T09:59:11.002Z,78.88
2023-04-16T10:00:10.703Z,78.16
2023-04-16T10:01:10.738Z,77.96
2023-04-16T10:02:15.758Z,79.63
2023-04-16T10:03:12.214Z,79.52
2023-04-16T10:04:10.740Z,79.66
2023-04-16T10:05:10.558Z,78.27
2023-04-16T10:06:10.730Z,79.43
2023-04-16T10:07:10.761Z,79.59
2023-04-16T10:08:10.705Z,78.47
2023-04-16T10:09:11.461Z,78.33
2023-04-16T10:10:10.576Z,78.33
2023-04-16T10:11:10.690Z,77.89
2023-04-16T10:12:10.660Z,76.80
2023-04-16T10:13:10.555Z,78.37
2023-04-16T10:14:10.515Z,78.57
2023-04-16T10:15:11.075Z,77.82
2023-04-16T10:16:10.584Z,77.96
2023-04-16T10:17:10.711Z,79.14
2023-04-16T10:18:10.675Z,78.06
2023-04-16T10:19:10.900Z,78.70
2023-04-16T10:20:10.568Z,77.48
2023-04-16T10:21:11.003Z,77.14
2023-04-16T10:22:10.604Z,76.70
2023-04-16T10:23:10.589Z,77.65
2023-04-16T10:24:10.407Z,78.06
2023-04-16T10:25:10.567Z,78.06
2023-04-16T10:26:10.596Z,77.96
2023-04-16T10:27:10.914Z,77.31
2023-04-16T10:28:10.514Z,77.21
2023-04-16T10:29:10.817Z,77.14
2023-04-16T10:30:14.684Z,78.30
2023-04-16T10:31:10.615Z,78.27
2023-04-16T10:32:10.506Z,77.65
2023-04-16T10:33:11.276Z,76.90
2023-04-16T10:34:10.493Z,77.34
2023-04-16T10:35:10.528Z,77.55
2023-04-16T10:36:10.342Z,77.51
2023-04-16T10:37:10.480Z,77.38
2023-04-16T10:38:11.459Z,78.23
2023-04-16T10:39:11.160Z,79.66
2023-04-16T10:40:10.470Z,79.02
2023-04-16T10:41:11.346Z,78.41
2023-04-16T10:42:10.307Z,78.09
2023-04-16T10:43:10.416Z,78.30
2023-04-16T10:44:10.434Z,78.27
2023-04-16T10:45:10.717Z,77.25
2023-04-16T10:46:10.440Z,78.06
2023-04-16T10:47:10.450Z,77.21
2023-04-16T10:48:10.445Z,76.93
2023-04-16T10:49:11.588Z,77.25
2023-04-16T10:50:10.394Z,77.96
2023-04-16T10:51:10.799Z,77.96
2023-04-16T10:52:10.285Z,77.86
2023-04-16T10:53:10.364Z,77.21
2023-04-16T10:54:10.342Z,77.55
2023-04-16T10:55:10.393Z,77.38
2023-04-16T10:56:10.224Z,77.48
2023-04-16T10:57:10.860Z,77.89
2023-04-16T10:58:10.271Z,77.38
2023-04-16T10:59:11.572Z,76.93
2023-04-16T11:00:10.235Z,76.53
2023-04-16T11:01:10.482Z,76.19
2023-04-16T11:02:10.530Z,75.61
2023-04-16T11:03:10.945Z,76.70
2023-04-16T11:04:10.383Z,75.27
2023-04-16T11:05:10.202Z,75.13
2023-04-16T11:06:10.235Z,73.81
2023-04-16T11:07:10.272Z,75.13
2023-04-16T11:08:10.163Z,74.49
2023-04-16T11:09:10.975Z,74.79
2023-04-16T11:10:10.106Z,73.19
2023-04-16T11:11:10.118Z,73.91
2023-04-16T11:12:09.956Z,73.02
2023-04-16T11:13:10.148Z,72.48
2023-04-16T11:14:10.272Z,71.91
2023-04-16T11:15:10.932Z,74.11
2023-04-16T11:16:10.046Z,74.62
2023-04-16T11:17:10.092Z,75.10
2023-04-16T11:18:10.150Z,74.28
2023-04-16T11:19:10.369Z,73.06
2023-04-16T11:20:17.425Z,73.74
2023-04-16T11:21:11.703Z,72.79
2023-04-16T11:22:10.078Z,74.45
2023-04-16T11:23:09.981Z,74.86
2023-04-16T11:24:10.123Z,73.74
2023-04-16T11:25:11.069Z,74.69
2023-04-16T11:26:10.155Z,74.76
2023-04-16T11:27:12.601Z,75.34
2023-04-16T11:28:10.013Z,74.32
2023-04-16T11:29:11.216Z,74.01
2023-04-16T11:30:10.112Z,73.06
2023-04-16T11:31:11.088Z,73.54
2023-04-16T11:32:10.028Z,73.06
2023-04-16T11:33:11.564Z,69.13
2023-04-16T11:34:10.048Z,69.02
2023-04-16T11:35:10.017Z,67.00
2023-04-16T11:36:10.021Z,67.13
2023-04-16T11:37:10.016Z,67.13
2023-04-16T11:38:09.897Z,65.68
2023-04-16T11:39:10.719Z,66.74
2023-04-16T11:40:10.033Z,63.75
2023-04-16T11:41:10.033Z,62.69
2023-04-16T11:42:10.031Z,61.82
2023-04-16T11:43:09.928Z,63.45
2023-04-16T11:44:09.993Z,65.99
2023-04-16T11:45:10.359Z,65.72
2023-04-16T11:46:24.061Z,64.67
2023-04-16T11:47:10.854Z,65.88
2023-04-16T11:48:11.168Z,65.78
2023-04-16T11:49:10.049Z,66.02
2023-04-16T11:50:09.906Z,65.04
2023-04-16T11:51:10.418Z,65.52
2023-04-16T11:52:09.865Z,64.72
2023-04-16T11:53:09.889Z,60.68
2023-04-16T11:54:11.817Z,60.85
2023-04-16T11:55:09.906Z,60.69
2023-04-16T11:56:09.902Z,59.31
2023-04-16T11:57:12.381Z,61.74
2023-04-16T11:58:09.893Z,62.05
2023-04-16T11:59:10.224Z,61.62
2023-04-16T12:00:10.667Z,62.47
2023-04-16T12:01:09.632Z,60.58
2023-04-16T12:02:09.945Z,61.14
2023-04-16T12:03:10.508Z,62.31
2023-04-16T12:04:10.248Z,62.27
2023-04-16T12:05:09.903Z,63.43
2023-04-16T12:06:09.834Z,61.05
2023-04-16T12:07:09.744Z,59.54
2023-04-16T12:08:09.783Z,58.33
2023-04-16T12:09:10.374Z,59.59
2023-04-16T12:10:09.810Z,60.59
2023-04-16T12:11:09.817Z,62.48
2023-04-16T12:12:09.751Z,63.58
2023-04-16T12:13:09.773Z,66.49
2023-04-16T12:14:09.818Z,65.94
2023-04-16T12:15:10.199Z,64.67
2023-04-16T12:16:09.889Z,66.33
2023-04-16T12:17:11.245Z,64.64
2023-04-16T12:18:09.826Z,61.91
2023-04-16T12:19:09.986Z,64.07
2023-04-16T12:20:09.749Z,60.16
2023-04-16T12:21:10.172Z,62.49
2023-04-16T12:22:09.713Z,60.93
2023-04-16T12:23:09.615Z,63.65
2023-04-16T12:24:09.576Z,64.07
2023-04-16T12:25:09.703Z,60.58
2023-04-16T12:26:09.748Z,58.15
2023-04-16T12:27:10.150Z,58.00
2023-04-16T12:28:09.630Z,60.26
2023-04-16T12:29:09.583Z,60.69
2023-04-16T12:30:09.411Z,61.91
2023-04-16T12:31:09.674Z,60.16
2023-04-16T12:32:09.626Z,61.87
2023-04-16T12:33:10.109Z,61.87
2023-04-16T12:34:09.425Z,61.60
2023-04-16T12:35:09.691Z,61.60
2023-04-16T12:36:09.611Z,61.27
2023-04-16T12:37:09.637Z,59.90
2023-04-16T12:38:09.567Z,59.64
2023-04-16T12:39:10.736Z,56.73
2023-04-16T12:40:10.334Z,57.65
2023-04-16T12:41:10.374Z,59.50
2023-04-16T12:42:09.598Z,59.83
2023-04-16T12:43:09.535Z,58.28
2023-04-16T12:44:09.521Z,58.73
2023-04-16T12:45:11.010Z,57.34
2023-04-16T12:46:09.612Z,58.63
2023-04-16T12:47:09.556Z,59.99
2023-04-16T12:48:09.427Z,60.59
2023-04-16T12:49:09.782Z,61.69
2023-04-16T12:50:09.527Z,62.23
2023-04-16T12:51:10.914Z,63.58
2023-04-16T12:52:09.531Z,65.06